Portscatho, United Kingdom
Current Conditions -  °F | °C
As of 9:50 AM on Sunday 26 Oct 2014 (Local Time) from EGDR Reporting Station
Broken Clouds Broken Clouds  
Wind Chill: 14°   Ceiling: 3200
Heat Index: 14°   Visibility: 6mi
Dew Point:   Wind: 13mph
Humidity: 72%   Direction: 220°SW
Pressure: 30.15"   Gusts: NA
Location:  50.17°N, 4.97°W
Report Text: EGDR 260850Z 22011KT 9999 FEW022 BKN032 14/09 Q1021 BLU NOSIG
Loading
Personal Weather Stations






























Interactive Weather Map
Tropical Storm Tracking
New forecast layout! Learn more

10-Day Weather Forecast

Advertisements
Track Severe Weather on mobile